Time;durP1;ratioP1;P1;durP2;ratioP2;P2;SDS_P1;SDS_P2;PMS_P1;PMS_P2;Temp;Humidity;BMP_temperature;BMP_pressure;BME280_temperature;BME280_humidity;BME280_pressure;Samples;Min_cycle;Max_cycle;Signal;HPM_P1;HPM_P2
2022/08/25 00:00:31;;;;;;;4.65;3.70;;;;;;;19.52;52.68;92956.78;2071051;69;20152;-72
2022/08/25 00:02:57;;;;;;;5.85;3.60;;;;;;;19.58;52.64;92961.97;2070574;69;20251;-72
2022/08/25 00:05:26;;;;;;;4.00;3.60;;;;;;;19.45;50.79;92952.28;2067696;69;20227;-73
2022/08/25 00:07:52;;;;;;;4.20;3.75;;;;;;;19.53;51.68;92953.25;2071129;69;20179;-72
2022/08/25 00:10:17;;;;;;;4.63;3.88;;;;;;;19.00;52.98;92950.81;2071026;69;20184;-73
2022/08/25 00:12:43;;;;;;;4.22;3.80;;;;;;;19.47;51.84;92955.19;2070973;69;20168;-73
2022/08/25 00:15:09;;;;;;;5.93;3.78;;;;;;;19.34;52.88;92959.06;2070971;69;20523;-73
2022/08/25 00:17:35;;;;;;;5.85;3.78;;;;;;;19.46;51.52;92948.75;2071214;69;20184;-73
2022/08/25 00:20:01;;;;;;;5.22;3.50;;;;;;;19.55;50.48;92946.88;2071056;69;20251;-73
2022/08/25 00:22:27;;;;;;;4.75;3.70;;;;;;;19.47;51.13;92952.31;2071049;69;20178;-74
2022/08/25 00:24:53;;;;;;;5.07;3.80;;;;;;;19.42;51.50;92957.16;2070992;69;20569;-73
2022/08/25 00:27:19;;;;;;;4.38;3.97;;;;;;;19.49;51.43;92947.41;2070799;69;20153;-74
2022/08/25 00:29:44;;;;;;;6.75;4.10;;;;;;;19.17;52.65;92957.78;2070953;69;20366;-74
2022/08/25 00:32:10;;;;;;;3.95;3.35;;;;;;;19.39;51.22;92949.97;2067582;69;20144;-73
2022/08/25 00:34:38;;;;;;;6.22;4.00;;;;;;;19.27;52.21;92953.13;2067658;69;20164;-72
2022/08/25 00:37:08;;;;;;;5.07;3.80;;;;;;;19.02;53.67;92954.47;2070996;69;20714;-71
2022/08/25 00:39:34;;;;;;;4.15;3.75;;;;;;;19.16;51.74;92953.47;2070877;69;20591;-71
2022/08/25 00:42:02;;;;;;;7.85;3.55;;;;;;;19.10;52.46;92954.00;2070903;69;20191;-72
2022/08/25 00:44:29;;;;;;;9.10;3.80;;;;;;;19.14;52.73;92953.41;2070856;69;20167;-71
2022/08/25 00:46:58;;;;;;;5.45;3.80;;;;;;;18.90;53.78;92954.03;2070783;69;20183;-72
2022/08/25 00:49:37;;;;;;;5.78;3.83;;;;;;;19.00;53.28;92945.81;2067475;69;20594;-73
2022/08/25 00:52:11;;;;;;;9.18;3.92;;;;;;;18.99;53.73;92955.78;2067749;69;20283;-73
2022/08/25 00:54:46;;;;;;;4.05;3.65;;;;;;;18.82;54.35;92962.31;2071069;69;20167;-72
2022/08/25 00:57:15;;;;;;;6.85;3.95;;;;;;;18.82;54.53;92953.75;2070946;69;20140;-72
2022/08/25 00:59:43;;;;;;;6.85;3.85;;;;;;;18.87;53.80;92952.50;2070872;69;20226;-72
2022/08/25 01:02:11;;;;;;;5.93;4.00;;;;;;;18.87;53.13;92951.78;2071229;69;20160;-73
2022/08/25 01:04:36;;;;;;;5.90;4.00;;;;;;;18.81;54.52;92952.31;2071116;69;20215;-73
2022/08/25 01:07:03;;;;;;;5.47;3.63;;;;;;;18.85;54.17;92954.56;2070997;69;20174;-74
2022/08/25 01:09:31;;;;;;;5.57;3.70;;;;;;;18.76;54.12;92962.84;2067427;69;20159;-74
2022/08/25 01:11:58;;;;;;;5.50;4.28;;;;;;;18.75;54.26;92958.53;2067313;69;20144;-73
2022/08/25 01:14:25;;;;;;;7.78;3.92;;;;;;;18.70;54.13;92961.91;2067426;69;20167;-72
2022/08/25 01:16:52;;;;;;;4.95;4.03;;;;;;;18.83;53.40;92957.34;2070945;69;20257;-72
2022/08/25 01:19:18;;;;;;;6.50;3.80;;;;;;;18.63;54.72;92958.09;2070628;69;20183;-72
2022/08/25 01:21:48;;;;;;;8.02;4.15;;;;;;;18.64;54.93;92956.69;2070842;69;20160;-72
2022/08/25 01:24:30;;;;;;;4.50;4.03;;;;;;;18.64;53.86;92950.25;2071022;69;20136;-72
2022/08/25 01:27:00;;;;;;;5.30;3.97;;;;;;;18.96;52.32;92953.53;2070731;69;20232;-72
2022/08/25 01:29:26;;;;;;;6.22;4.10;;;;;;;18.62;53.76;92945.22;2070840;69;20316;-71
2022/08/25 01:31:56;;;;;;;4.25;3.70;;;;;;;18.66;52.37;92942.50;2070845;69;20168;-71
2022/08/25 01:34:26;;;;;;;4.78;3.75;;;;;;;18.69;52.86;92938.38;2067512;69;20385;-71
2022/08/25 01:36:53;;;;;;;4.38;3.65;;;;;;;18.67;53.58;92940.38;2070676;69;20156;-73
2022/08/25 01:39:20;;;;;;;6.38;3.45;;;;;;;18.68;52.40;92936.88;2070967;69;20208;-72
2022/08/25 01:42:10;;;;;;;5.22;3.47;;;;;;;18.86;51.80;92933.22;2070736;69;20160;-73
2022/08/25 01:44:42;;;;;;;3.78;3.38;;;;;;;18.82;52.41;92941.63;2070691;69;20164;-72
2022/08/25 01:47:09;;;;;;;4.57;3.70;;;;;;;18.82;52.39;92944.47;2070831;69;20488;-72
2022/08/25 01:49:35;;;;;;;6.30;3.60;;;;;;;18.66;52.58;92938.94;2070829;69;20699;-74
2022/08/25 01:52:11;;;;;;;5.45;3.80;;;;;;;18.74;53.61;92942.81;2070878;69;20152;-73
2022/08/25 01:54:37;;;;;;;5.57;3.72;;;;;;;18.68;53.31;92942.56;2070809;69;20184;-74
2022/08/25 01:57:04;;;;;;;5.70;3.90;;;;;;;18.71;52.46;92943.41;2067346;69;20251;-72
2022/08/25 01:59:30;;;;;;;4.45;3.80;;;;;;;18.70;52.68;92939.84;2070693;69;20156;-72
2022/08/25 02:01:55;;;;;;;4.65;3.70;;;;;;;18.69;53.46;92940.47;2070527;69;20194;-72
2022/08/25 02:04:21;;;;;;;4.30;3.90;;;;;;;18.84;52.06;92941.72;2070750;69;20144;-72
2022/08/25 02:06:48;;;;;;;5.05;3.72;;;;;;;18.62;53.01;92945.22;2070852;69;20178;-72
2022/08/25 02:09:15;;;;;;;5.43;4.05;;;;;;;18.55;53.98;92940.69;2070816;69;20160;-71
2022/08/25 02:11:43;;;;;;;5.47;3.90;;;;;;;18.77;51.07;92938.63;2070775;69;20213;-71
2022/08/25 02:14:11;;;;;;;4.85;3.92;;;;;;;18.66;52.24;92941.78;2070758;69;20638;-71
2022/08/25 02:16:38;;;;;;;4.43;3.60;;;;;;;18.67;51.90;92943.25;2070813;69;20626;-71
2022/08/25 02:19:05;;;;;;;4.82;4.07;;;;;;;18.48;52.70;92933.31;2070677;69;20219;-73
2022/08/25 02:21:32;;;;;;;4.88;4.15;;;;;;;18.42;52.99;92927.41;2070825;69;20159;-73
2022/08/25 02:23:58;;;;;;;6.50;4.22;;;;;;;18.45;52.66;92926.09;2070916;69;20239;-74
2022/08/25 02:26:24;;;;;;;4.22;3.83;;;;;;;18.29;53.23;92920.56;2070842;69;20541;-73
2022/08/25 02:28:51;;;;;;;5.43;4.10;;;;;;;18.45;52.67;92921.09;2071147;69;20147;-74
2022/08/25 02:31:19;;;;;;;6.90;4.03;;;;;;;18.33;53.28;92917.13;2067385;69;20204;-73
2022/08/25 02:33:45;;;;;;;5.82;4.05;;;;;;;18.31;53.38;92917.75;2070855;69;20175;-75
2022/08/25 02:36:11;;;;;;;5.38;3.92;;;;;;;18.20;54.71;92930.19;2071019;69;20140;-74
2022/08/25 02:38:38;;;;;;;4.72;3.78;;;;;;;18.41;51.26;92925.94;2071075;69;20209;-73
2022/08/25 02:41:19;;;;;;;5.15;3.55;;;;;;;18.41;51.95;92920.25;2070986;69;20192;-73
2022/08/25 02:43:47;;;;;;;3.92;3.53;;;;;;;18.18;53.81;92924.41;2071101;69;20538;-73
2022/08/25 02:46:13;;;;;;;4.30;3.80;;;;;;;18.21;53.25;92925.94;2071001;69;20239;-73
2022/08/25 02:48:39;;;;;;;6.10;4.00;;;;;;;18.01;54.62;92923.84;2071152;69;20163;-72
2022/08/25 02:51:06;;;;;;;6.80;4.13;;;;;;;18.12;52.66;92927.78;2070972;69;20634;-72
2022/08/25 02:53:33;;;;;;;5.80;3.70;;;;;;;18.23;53.73;92920.31;2071095;69;20205;-73
2022/08/25 02:55:59;;;;;;;4.85;3.90;;;;;;;18.18;52.70;92922.28;2070730;69;20155;-74
2022/08/25 02:58:24;;;;;;;5.20;4.10;;;;;;;18.08;53.77;92924.78;2067498;69;20623;-74
2022/08/25 03:00:51;;;;;;;5.10;3.75;;;;;;;18.03;54.31;92932.44;2070771;69;20599;-74
2022/08/25 03:03:18;;;;;;;5.40;3.42;;;;;;;18.39;51.50;92926.59;2070904;69;20136;-73
2022/08/25 03:05:44;;;;;;;6.10;3.75;;;;;;;18.20;52.20;92919.53;2070777;69;20217;-74
2022/08/25 03:08:10;;;;;;;5.32;3.83;;;;;;;17.93;54.99;92919.94;2070894;69;20148;-73
2022/08/25 03:10:36;;;;;;;4.38;3.97;;;;;;;17.80;55.29;92915.19;2067665;69;20151;-74
2022/08/25 03:13:03;;;;;;;6.22;4.00;;;;;;;17.91;54.47;92917.75;2070724;69;20145;-73
2022/08/25 03:15:29;;;;;;;5.35;3.85;;;;;;;17.70;56.11;92912.66;2071292;69;20172;-72
2022/08/25 03:17:55;;;;;;;5.32;4.50;;;;;;;17.61;56.73;92920.16;2068126;69;20206;-74
2022/08/25 03:20:23;;;;;;;5.18;3.95;;;;;;;17.52;56.53;92924.81;2071332;69;20226;-73
2022/08/25 03:22:49;;;;;;;6.53;3.85;;;;;;;17.61;55.93;92919.44;2071477;69;20571;-73
2022/08/25 03:27:59;;;;;;;6.65;4.35;;;;;;;17.54;55.96;92919.19;2068031;69;20235;-73
2022/08/25 03:30:26;;;;;;;5.55;3.85;;;;;;;17.51;56.47;92929.03;2071342;69;20172;-74
2022/08/25 03:32:52;;;;;;;6.97;4.00;;;;;;;17.00;58.60;92926.31;2071451;69;20243;-75
2022/08/25 03:35:18;;;;;;;4.80;4.30;;;;;;;17.37;57.00;92927.75;2071137;69;20587;-75
2022/08/25 03:37:44;;;;;;;5.93;4.13;;;;;;;17.25;57.97;92925.16;2068206;69;20599;-75
2022/08/25 03:40:14;;;;;;;8.20;3.70;;;;;;;17.30;57.09;92923.94;2071344;69;20243;-74
2022/08/25 03:42:41;;;;;;;7.80;4.30;;;;;;;17.29;57.41;92925.31;2071246;69;20210;-75
2022/08/25 03:45:10;;;;;;;6.60;4.05;;;;;;;17.34;57.50;92926.94;2071417;69;20250;-74
2022/08/25 03:47:37;;;;;;;5.88;4.00;;;;;;;17.41;55.49;92928.66;2071485;69;20152;-76
2022/08/25 03:50:04;;;;;;;4.70;4.20;;;;;;;17.44;56.10;92921.63;2071483;69;20231;-73
2022/08/25 03:52:30;;;;;;;5.80;4.50;;;;;;;17.23;57.04;92928.66;2071338;69;20298;-73
2022/08/25 03:54:55;;;;;;;5.15;4.20;;;;;;;17.25;57.32;92923.03;2071531;69;20460;-73
2022/08/25 03:57:21;;;;;;;6.53;4.05;;;;;;;17.30;56.86;92923.22;2071286;69;20139;-73
2022/08/25 03:59:46;;;;;;;7.32;4.20;;;;;;;17.20;57.15;92917.84;2071195;69;20574;-73
2022/08/25 04:02:12;;;;;;;6.68;4.55;;;;;;;17.20;57.26;92924.25;2071369;69;20588;-73
2022/08/25 04:04:39;;;;;;;6.97;4.10;;;;;;;17.27;56.82;92916.69;2071430;69;20149;-75
2022/08/25 04:07:05;;;;;;;4.60;3.92;;;;;;;17.25;57.11;92923.03;2071286;69;20240;-73
2022/08/25 04:09:31;;;;;;;6.90;4.30;;;;;;;16.80;59.06;92926.19;2071281;69;20148;-73
2022/08/25 04:11:57;;;;;;;4.95;4.45;;;;;;;16.90;58.64;92915.22;2071355;69;20223;-73
2022/08/25 04:14:22;;;;;;;6.18;4.07;;;;;;;16.96;58.99;92918.34;2071269;69;20223;-75
2022/08/25 04:16:49;;;;;;;4.90;4.40;;;;;;;17.01;57.61;92910.69;2071404;69;20652;-75
2022/08/25 04:19:14;;;;;;;4.60;3.90;;;;;;;17.02;57.76;92907.19;2067797;69;20230;-74
2022/08/25 04:21:41;;;;;;;7.15;4.20;;;;;;;17.16;57.16;92912.72;2071365;69;20175;-73
2022/08/25 04:24:09;;;;;;;4.30;3.90;;;;;;;17.24;57.05;92915.16;2071186;69;20156;-74
2022/08/25 04:26:39;;;;;;;5.15;4.10;;;;;;;17.19;57.07;92913.56;2071115;69;20176;-73
2022/08/25 04:29:06;;;;;;;4.22;3.83;;;;;;;17.25;55.78;92908.09;2071313;69;20148;-72
2022/08/25 04:31:32;;;;;;;7.68;4.38;;;;;;;17.24;56.25;92918.00;2071382;69;20160;-72
2022/08/25 04:34:01;;;;;;;7.50;4.15;;;;;;;17.32;54.77;92914.75;2071238;69;20546;-73
2022/08/25 04:36:27;;;;;;;4.60;4.07;;;;;;;17.22;56.19;92909.38;2071379;69;20148;-73
2022/08/25 04:38:53;;;;;;;7.72;4.43;;;;;;;17.07;56.94;92916.63;2071228;69;20602;-73
2022/08/25 04:41:21;;;;;;;4.78;4.18;;;;;;;17.11;56.18;92913.94;2071241;69;20587;-73
2022/08/25 04:43:46;;;;;;;9.68;4.50;;;;;;;17.12;56.29;92914.69;2071288;69;20155;-73
2022/08/25 04:46:16;;;;;;;6.28;3.85;;;;;;;17.24;54.44;92915.16;2071329;69;20144;-74
2022/08/25 04:48:42;;;;;;;6.80;4.20;;;;;;;17.13;56.40;92911.16;2069183;69;20626;-73
2022/08/25 04:51:11;;;;;;;7.00;4.25;;;;;;;17.07;57.88;92919.47;2071225;69;20568;-73
2022/08/25 04:53:38;;;;;;;4.38;3.88;;;;;;;17.05;57.01;92910.13;2071133;69;20191;-75
2022/08/25 04:56:10;;;;;;;5.65;4.05;;;;;;;17.16;57.74;92920.53;2071461;69;20607;-75
2022/08/25 04:58:36;;;;;;;4.30;3.90;;;;;;;16.88;57.03;92918.00;2068087;69;20256;-73
2022/08/25 05:01:07;;;;;;;8.35;4.40;;;;;;;16.84;57.57;92919.94;2071260;69;20684;-72
2022/08/25 05:03:32;;;;;;;7.95;4.30;;;;;;;16.88;57.69;92922.97;2071233;69;20179;-73
2022/08/25 05:05:58;;;;;;;6.32;4.05;;;;;;;17.07;56.47;92921.59;2071399;69;20525;-72
2022/08/25 05:08:24;;;;;;;4.55;4.10;;;;;;;17.23;55.58;92930.78;2071344;69;20188;-73
2022/08/25 05:10:53;;;;;;;7.13;4.00;;;;;;;17.17;57.74;92930.53;2071176;69;20159;-72
2022/08/25 05:13:23;;;;;;;4.65;4.00;;;;;;;17.06;58.12;92934.34;2071157;69;20142;-73
2022/08/25 05:15:54;;;;;;;6.93;4.00;;;;;;;17.08;58.58;92929.47;2071383;69;20151;-74
2022/08/25 05:18:22;;;;;;;4.95;4.00;;;;;;;17.26;57.03;92929.47;2071130;69;20148;-73
2022/08/25 05:20:48;;;;;;;5.03;4.40;;;;;;;17.22;56.54;92929.28;2071106;69;20242;-74
2022/08/25 05:23:15;;;;;;;4.85;4.35;;;;;;;17.22;57.71;92923.59;2067901;69;20156;-73
2022/08/25 05:25:41;;;;;;;6.95;4.20;;;;;;;17.24;57.54;92920.84;2067538;69;20235;-75
2022/08/25 05:28:07;;;;;;;5.35;3.95;;;;;;;17.46;55.24;92915.31;2070837;69;20184;-73
2022/08/25 05:30:38;;;;;;;4.22;3.50;;;;;;;17.45;56.25;92920.25;2071171;69;20530;-72
2022/08/25 05:33:04;;;;;;;5.32;3.80;;;;;;;17.50;55.50;92919.03;2070977;69;20159;-73
2022/08/25 05:35:29;;;;;;;4.80;3.70;;;;;;;17.41;54.59;92913.66;2071326;69;20176;-71
2022/08/25 05:37:56;;;;;;;6.68;4.68;;;;;;;17.34;56.05;92912.72;2067817;69;20236;-73
2022/08/25 05:40:23;;;;;;;6.93;4.22;;;;;;;17.18;55.90;92923.44;2067891;69;20175;-73
2022/08/25 05:42:50;;;;;;;4.55;4.03;;;;;;;17.21;56.13;92920.03;2070743;69;20232;-74
2022/08/25 05:45:16;;;;;;;8.50;5.43;;;;;;;16.80;57.34;92916.94;2070575;69;20289;-74
2022/08/25 05:47:43;;;;;;;5.10;4.35;;;;;;;16.92;57.70;92923.13;2071055;69;20183;-72
2022/08/25 05:50:09;;;;;;;6.82;4.20;;;;;;;17.20;57.03;92912.16;2071079;69;20156;-74
2022/08/25 05:52:35;;;;;;;5.72;4.30;;;;;;;17.22;56.82;92918.66;2071072;69;20148;-73
2022/08/25 05:55:00;;;;;;;6.00;4.20;;;;;;;17.35;56.67;92911.31;2071299;69;20622;-74
2022/08/25 05:57:26;;;;;;;4.80;4.15;;;;;;;17.30;55.55;92923.22;2067648;69;20164;-74
2022/08/25 05:59:52;;;;;;;4.63;3.78;;;;;;;17.27;56.15;92923.13;2071206;69;20168;-73
2022/08/25 06:05:03;;;;;;;5.05;4.30;;;;;;;17.26;55.81;92921.66;2071403;69;20156;-74
2022/08/25 06:07:28;;;;;;;4.82;4.20;;;;;;;17.22;57.39;92915.81;2071245;69;20487;-72
2022/08/25 06:09:54;;;;;;;5.43;3.85;;;;;;;17.32;56.75;92917.59;2067768;69;20588;-72
2022/08/25 06:12:20;;;;;;;6.78;4.03;;;;;;;17.48;54.35;92912.53;2070955;69;20141;-73
2022/08/25 06:14:48;;;;;;;7.28;3.97;;;;;;;17.42;56.44;92910.19;2067678;69;20246;-73
2022/08/25 06:17:15;;;;;;;4.35;3.90;;;;;;;17.33;58.08;92911.25;2071074;69;20496;-73
2022/08/25 06:19:40;;;;;;;6.13;3.83;;;;;;;17.29;56.75;92899.72;2070866;69;20485;-73
2022/08/25 06:22:06;;;;;;;3.85;3.45;;;;;;;17.46;55.16;92892.53;2071078;69;20578;-72
2022/08/25 06:24:32;;;;;;;5.38;3.78;;;;;;;17.50;56.50;92890.59;2070554;69;20179;-73
2022/08/25 06:26:59;;;;;;;5.72;3.90;;;;;;;17.46;56.28;92892.53;2070654;69;20155;-72
2022/08/25 06:29:25;;;;;;;6.78;3.97;;;;;;;17.47;57.19;92889.03;2071005;69;20163;-73
2022/08/25 06:31:51;;;;;;;6.47;4.18;;;;;;;17.44;56.64;92893.19;2071160;69;20152;-72
2022/08/25 06:34:17;;;;;;;4.20;3.33;;;;;;;17.49;55.77;92888.38;2071103;69;20163;-72
2022/08/25 06:36:43;;;;;;;4.93;4.00;;;;;;;17.48;56.61;92881.22;2067513;69;20159;-73
2022/08/25 06:39:10;;;;;;;7.32;3.97;;;;;;;17.43;57.68;92882.47;2070871;69;20213;-74
2022/08/25 06:41:36;;;;;;;6.43;3.72;;;;;;;17.63;57.83;92873.94;2067269;69;20171;-73
2022/08/25 06:44:02;;;;;;;4.25;3.55;;;;;;;17.72;57.60;92875.72;2070863;69;20559;-72
2022/08/25 06:46:29;;;;;;;4.57;4.07;;;;;;;18.16;54.95;92875.91;2070640;69;20173;-73
2022/08/25 06:48:56;;;;;;;4.78;4.28;;;;;;;18.09;55.75;92874.94;2071302;69;20160;-75
2022/08/25 06:51:25;;;;;;;6.85;3.97;;;;;;;18.46;54.49;92874.13;2071378;69;20156;-72
2022/08/25 06:53:51;;;;;;;7.10;3.72;;;;;;;18.84;54.57;92874.00;2071300;69;20630;-71
2022/08/25 06:56:19;;;;;;;5.93;3.50;;;;;;;19.04;52.71;92868.19;2069995;69;20202;-71
2022/08/25 06:58:46;;;;;;;5.05;3.40;;;;;;;19.44;52.70;92871.59;2068068;69;20160;-71
2022/08/25 07:01:22;;;;;;;4.20;3.53;;;;;;;19.39;52.62;92864.31;2070089;69;20156;-73
2022/08/25 07:03:49;;;;;;;6.03;3.60;;;;;;;19.79;52.29;92858.38;2068031;69;20235;-73
2022/08/25 07:06:20;;;;;;;4.85;3.70;;;;;;;19.95;50.97;92860.97;2071018;69;20215;-73
2022/08/25 07:08:46;;;;;;;6.50;4.00;;;;;;;19.48;51.40;92871.00;2071302;69;20203;-75
2022/08/25 07:11:14;;;;;;;4.95;3.80;;;;;;;20.05;51.43;92864.84;2071393;69;20143;-72
2022/08/25 07:13:39;;;;;;;5.93;3.50;;;;;;;20.80;49.57;92871.91;2071375;69;20668;-74
2022/08/25 07:16:07;;;;;;;4.00;3.15;;;;;;;21.78;47.67;92874.22;2071360;69;20237;-75
2022/08/25 07:18:34;;;;;;;3.42;3.13;;;;;;;21.28;49.46;92877.34;2071279;69;20160;-73
2022/08/25 07:20:59;;;;;;;5.15;3.30;;;;;;;21.28;48.16;92871.63;2071392;69;20155;-75
2022/08/25 07:23:26;;;;;;;5.80;3.10;;;;;;;21.79;49.51;92872.09;2068096;69;20175;-74
2022/08/25 07:25:53;;;;;;;3.40;3.10;;;;;;;21.95;48.85;92866.72;2071339;69;20183;-74
2022/08/25 07:28:20;;;;;;;4.75;3.17;;;;;;;22.25;48.20;92863.03;2071230;69;20159;-73
2022/08/25 07:30:46;;;;;;;4.50;3.40;;;;;;;22.52;46.98;92852.81;2071437;69;20530;-72
2022/08/25 07:33:11;;;;;;;3.95;3.45;;;;;;;22.77;45.72;92854.72;2071068;69;20567;-73
2022/08/25 07:35:37;;;;;;;4.95;3.17;;;;;;;23.05;46.56;92845.88;2068053;69;20236;-74
2022/08/25 07:38:05;;;;;;;3.72;2.90;;;;;;;23.04;46.56;92843.69;2071331;69;20217;-74
2022/08/25 07:40:34;;;;;;;5.65;3.30;;;;;;;22.88;45.72;92852.00;2071415;69;20536;-74
2022/08/25 07:43:03;;;;;;;5.10;3.25;;;;;;;24.69;42.28;92857.47;2071314;69;20144;-73
2022/08/25 07:45:32;;;;;;;4.95;3.17;;;;;;;24.01;43.95;92844.44;2071242;69;20144;-72
2022/08/25 07:48:11;;;;;;;4.03;3.00;;;;;;;24.08;44.10;92845.25;2071412;69;20239;-73
2022/08/25 07:50:46;;;;;;;3.53;3.10;;;;;;;23.84;42.64;92842.78;2070610;69;20156;-77
2022/08/25 07:53:14;;;;;;;3.40;2.97;;;;;;;23.40;43.29;92837.81;2071137;69;20144;-76
2022/08/25 07:55:41;;;;;;;3.40;3.10;;;;;;;24.20;42.40;92838.94;2071162;69;20156;-74
2022/08/25 07:58:09;;;;;;;6.38;2.90;;;;;;;24.63;41.40;92840.16;2070507;69;20217;-74
2022/08/25 08:00:36;;;;;;;3.95;2.88;;;;;;;25.15;41.12;92838.50;2071019;69;20209;-75
2022/08/25 08:03:04;;;;;;;6.47;3.28;;;;;;;25.26;40.15;92840.06;2065064;69;20606;-73
2022/08/25 08:05:31;;;;;;;3.78;2.83;;;;;;;25.45;40.20;92838.75;2071367;69;20152;-74
2022/08/25 08:07:57;;;;;;;4.00;2.70;;;;;;;25.83;39.36;92832.53;2071154;69;20171;-75
2022/08/25 08:10:24;;;;;;;3.40;2.88;;;;;;;25.88;39.27;92836.16;2071490;69;20160;-74
2022/08/25 08:12:51;;;;;;;3.50;3.20;;;;;;;25.78;37.90;92833.94;2070953;69;20197;-74
2022/08/25 08:15:18;;;;;;;4.45;3.15;;;;;;;26.01;38.70;92837.69;2064637;69;20147;-75
2022/08/25 08:17:44;;;;;;;4.03;3.10;;;;;;;26.04;37.44;92842.03;2067943;69;20543;-75
2022/08/25 08:20:11;;;;;;;3.83;3.17;;;;;;;26.31;37.78;92837.13;2067834;69;20228;-74
2022/08/25 08:22:40;;;;;;;5.35;2.83;;;;;;;27.16;37.34;92840.97;2067780;69;20636;-75
2022/08/25 08:25:08;;;;;;;3.03;2.75;;;;;;;27.23;37.76;92842.44;2067341;69;20269;-74
2022/08/25 08:27:34;;;;;;;5.00;2.63;;;;;;;27.60;36.78;92835.22;2067044;69;20600;-75
2022/08/25 08:30:01;;;;;;;3.60;2.80;;;;;;;27.73;37.17;92832.34;2067848;69;20145;-75
2022/08/25 08:32:26;;;;;;;3.35;2.95;;;;;;;26.79;36.73;92832.22;2067689;69;20168;-74
2022/08/25 08:34:53;;;;;;;3.70;3.03;;;;;;;27.56;35.63;92823.66;2067758;69;20156;-75
2022/08/25 08:37:19;;;;;;;3.13;2.80;;;;;;;27.85;36.63;92817.84;2067917;69;20137;-76
2022/08/25 08:39:44;;;;;;;4.85;2.60;;;;;;;29.63;33.10;92817.69;2068046;69;20612;-76
2022/08/25 08:42:22;;;;;;;7.03;2.50;;;;;;;28.82;35.00;92810.97;2067710;69;20180;-76
2022/08/25 08:44:49;;;;;;;3.53;2.63;;;;;;;28.67;34.38;92803.81;2067979;69;20599;-75
2022/08/25 08:47:54;;;;;;;4.20;3.00;;;;;;;28.56;34.40;92805.31;2067930;69;20222;-75
2022/08/25 08:50:49;;;;;;;3.38;2.53;;;;;;;28.65;34.82;92811.81;2067562;69;20175;-75
2022/08/25 08:53:22;;;;;;;3.33;2.70;;;;;;;29.16;33.68;92802.81;2067650;69;20175;-76
2022/08/25 08:55:52;;;;;;;3.13;2.92;;;;;;;28.42;35.47;92785.84;2067871;69;20132;-74
2022/08/25 08:58:26;;;;;;;5.07;3.03;;;;;;;29.71;34.65;92787.88;2067985;69;20604;-76
2022/08/25 09:00:57;;;;;;;3.40;2.60;;;;;;;31.37;31.41;92787.97;2067334;69;20148;-76
2022/08/25 09:03:41;;;;;;;3.28;2.80;;;;;;;30.24;33.24;92784.41;2067981;69;20671;-74
2022/08/25 09:06:26;;;;;;;3.08;2.85;;;;;;;29.83;33.29;92784.88;2067932;69;20188;-74
2022/08/25 09:08:56;;;;;;;3.10;2.40;;;;;;;30.28;32.17;92790.91;2068133;69;20137;-73
2022/08/25 09:11:45;;;;;;;2.88;2.50;;;;;;;30.31;32.87;92782.91;2064528;69;20260;-73
2022/08/25 09:14:37;;;;;;;3.10;2.80;;;;;;;31.54;30.19;92782.63;2068988;69;20144;-73
2022/08/25 09:17:28;;;;;;;3.10;2.80;;;;;;;32.06;28.91;92788.28;2071281;69;20132;-75
2022/08/25 09:20:08;;;;;;;5.00;2.60;;;;;;;30.87;31.05;92775.63;2071187;69;20143;-74
2022/08/25 09:22:46;;;;;;;2.80;2.35;;;;;;;31.39;30.72;92775.63;2071323;69;20267;-74
2022/08/25 09:25:29;;;;;;;3.22;2.50;;;;;;;31.67;29.94;92773.69;2071339;69;20132;-73
2022/08/25 09:28:08;;;;;;;3.13;2.40;;;;;;;31.81;28.61;92773.44;2071141;69;20128;-74
2022/08/25 09:30:42;;;;;;;2.75;2.30;;;;;;;32.69;28.68;92768.84;2071382;69;20148;-75
2022/08/25 09:33:14;;;;;;;7.15;2.60;;;;;;;31.81;29.41;92761.81;2071282;69;20155;-74
2022/08/25 09:35:41;;;;;;;3.00;2.60;;;;;;;33.75;26.62;92752.53;2071407;69;20217;-74
2022/08/25 09:38:11;;;;;;;2.80;2.30;;;;;;;33.38;27.76;92761.47;2071175;69;20143;-73
2022/08/25 09:40:40;;;;;;;2.90;2.60;;;;;;;32.83;28.17;92751.03;2071381;69;20167;-73
2022/08/25 09:43:21;;;;;;;4.78;2.40;;;;;;;31.61;28.96;92751.22;2071232;69;20291;-75
2022/08/25 09:46:10;;;;;;;2.60;2.40;;;;;;;32.14;30.53;92742.25;2067869;69;20175;-74
2022/08/25 09:48:54;;;;;;;3.80;2.40;;;;;;;32.98;28.97;92731.75;2071122;69;20178;-75
2022/08/25 09:51:28;;;;;;;3.17;2.47;;;;;;;31.94;28.54;92718.66;2067935;69;20172;-75
2022/08/25 09:54:01;;;;;;;2.97;2.50;;;;;;;31.87;29.57;92712.94;2071201;69;20221;-76
2022/08/25 09:56:30;;;;;;;4.18;2.40;;;;;;;33.35;27.88;92708.25;2071240;69;20195;-76
2022/08/25 09:59:33;;;;;;;2.78;2.33;;;;;;;34.47;27.36;92710.44;2071358;69;20179;-75
2022/08/25 10:02:05;;;;;;;2.72;2.20;;;;;;;34.34;27.92;92710.06;2071219;69;20139;-75
2022/08/25 10:04:37;;;;;;;5.68;2.17;;;;;;;34.28;27.74;92694.91;2070773;69;20148;-75
2022/08/25 10:07:25;;;;;;;2.60;2.20;;;;;;;33.35;26.31;92696.59;2070375;69;20199;-74
2022/08/25 10:09:55;;;;;;;3.28;2.45;;;;;;;32.46;27.67;92692.84;2066437;69;20163;-75
2022/08/25 10:12:42;;;;;;;3.35;2.45;;;;;;;33.13;27.24;92692.06;2070159;69;20183;-74
2022/08/25 10:15:28;;;;;;;2.95;2.40;;;;;;;34.11;27.91;92685.91;2070731;69;20144;-74
2022/08/25 10:17:55;;;;;;;3.65;2.42;;;;;;;33.35;26.46;92684.22;2067135;69;20152;-73
2022/08/25 10:20:24;;;;;;;3.55;2.10;;;;;;;34.52;26.21;92684.75;2070843;69;20140;-74
2022/08/25 10:22:52;;;;;;;2.50;2.20;;;;;;;33.90;25.77;92679.88;2070956;69;20244;-74
2022/08/25 10:25:27;;;;;;;4.40;2.28;;;;;;;33.55;26.35;92669.13;2070772;69;20239;-75
2022/08/25 10:27:58;;;;;;;2.65;2.20;;;;;;;35.17;25.38;92671.03;2070811;69;20144;-76
2022/08/25 10:30:48;;;;;;;2.42;2.05;;;;;;;35.02;24.36;92662.00;2070852;69;20166;-72
2022/08/25 10:33:19;;;;;;;1.88;1.77;;;;;;;35.01;24.79;92660.59;2070638;69;20158;-73
2022/08/25 10:36:18;;;;;;;4.72;2.20;;;;;;;34.33;24.88;92658.97;2071011;69;20147;-72
2022/08/25 10:38:54;;;;;;;1.98;1.83;;;;;;;35.85;24.17;92657.78;2071098;69;20484;-74
2022/08/25 10:41:31;;;;;;;2.63;2.00;;;;;;;35.56;23.73;92658.06;2070811;69;20604;-77
2022/08/25 10:47:30;;;;;;;2.25;1.70;;;;;;;36.41;23.36;92645.47;2070718;69;20171;-74
2022/08/25 10:50:09;;;;;;;2.78;2.00;;;;;;;35.91;23.97;92639.97;2070907;69;20187;-72
2022/08/25 10:53:00;;;;;;;3.80;1.83;;;;;;;38.28;22.36;92640.00;2070696;69;20201;-73
2022/08/25 10:55:42;;;;;;;6.00;1.80;;;;;;;39.61;21.21;92637.38;2070669;69;20156;-73
2022/08/25 10:58:36;;;;;;;3.88;2.00;;;;;;;39.05;20.67;92638.69;2067280;69;20144;-74
2022/08/25 11:01:37;;;;;;;3.22;1.70;;;;;;;39.34;19.20;92634.34;2064380;69;20176;-74
2022/08/25 11:04:16;;;;;;;1.67;1.40;;;;;;;42.33;17.32;92640.81;2066940;69;20136;-75
2022/08/25 11:06:55;;;;;;;3.70;1.50;;;;;;;44.61;15.56;92642.97;2070564;69;20178;-75
2022/08/25 11:09:27;;;;;;;4.40;1.60;;;;;;;45.02;14.61;92639.41;2070804;69;20216;-72
2022/08/25 11:11:59;;;;;;;3.13;1.70;;;;;;;45.34;14.49;92636.34;2070830;69;20155;-73
2022/08/25 11:14:41;;;;;;;2.70;1.40;;;;;;;45.24;14.91;92631.84;2071043;69;20251;-75
2022/08/25 11:17:22;;;;;;;3.85;1.60;;;;;;;46.58;13.93;92629.25;2070477;69;20137;-74
2022/08/25 11:19:54;;;;;;;2.83;1.20;;;;;;;46.17;13.85;92632.41;2067650;69;20242;-74
2022/08/25 11:22:39;;;;;;;4.88;1.40;;;;;;;45.24;15.07;92616.28;2070625;69;20235;-72
2022/08/25 11:25:11;;;;;;;2.50;1.30;;;;;;;49.95;13.21;92622.34;2070753;69;20144;-75
2022/08/25 11:27:46;;;;;;;3.10;1.40;;;;;;;50.27;11.38;92630.63;2070490;69;20623;-74
2022/08/25 11:30:16;;;;;;;2.17;1.30;;;;;;;48.40;12.84;92618.13;2070741;69;20235;-74
2022/08/25 11:32:46;;;;;;;2.90;1.20;;;;;;;50.52;12.05;92625.34;2070673;69;20203;-75
2022/08/25 11:35:15;;;;;;;1.57;1.10;;;;;;;51.02;11.64;92628.78;2067669;69;20149;-72
2022/08/25 11:37:57;;;;;;;2.58;1.17;;;;;;;51.07;11.76;92620.78;2068082;69;20681;-73
2022/08/25 11:40:43;;;;;;;3.03;1.20;;;;;;;50.86;11.44;92618.34;2071263;69;20136;-74
2022/08/25 11:43:14;;;;;;;3.20;1.10;;;;;;;51.91;11.84;92623.91;2067895;69;20232;-74
2022/08/25 11:45:58;;;;;;;1.23;1.10;;;;;;;51.73;10.68;92623.41;2071134;69;20295;-74
2022/08/25 11:48:37;;;;;;;2.35;1.20;;;;;;;52.52;10.24;92617.75;2067937;69;20156;-75
2022/08/25 11:51:32;;;;;;;3.15;1.20;;;;;;;51.01;11.41;92606.41;2071247;69;20191;-75
2022/08/25 11:54:34;;;;;;;4.60;1.10;;;;;;;50.66;10.15;92599.31;2070600;69;20692;-75
2022/08/25 11:57:05;;;;;;;6.15;1.10;;;;;;;49.38;11.08;92591.63;2065381;69;20179;-75